sensor_id;sensor_type;location;lat;lon;timestamp;temperature;humidity
11043;DHT22;5574;48.786;10.120;2023-02-15T00:01:46;2.10;99.90
11043;DHT22;5574;48.786;10.120;2023-02-15T00:04:14;2.10;99.90
11043;DHT22;5574;48.786;10.120;2023-02-15T00:06:41;2.10;99.90
11043;DHT22;5574;48.786;10.120;2023-02-15T00:09:08;2.10;99.90
11043;DHT22;5574;48.786;10.120;2023-02-15T00:11:35;2.10;99.90
11043;DHT22;5574;48.786;10.120;2023-02-15T00:14:12;2.10;99.90
11043;DHT22;5574;48.786;10.120;2023-02-15T00:16:41;2.10;99.90
11043;DHT22;5574;48.786;10.120;2023-02-15T00:19:09;2.00;99.90
11043;DHT22;5574;48.786;10.120;2023-02-15T00:21:37;2.10;99.90
11043;DHT22;5574;48.786;10.120;2023-02-15T00:24:07;2.10;99.90
11043;DHT22;5574;48.786;10.120;2023-02-15T00:26:34;2.10;99.90
11043;DHT22;5574;48.786;10.120;2023-02-15T00:29:02;2.10;99.90
11043;DHT22;5574;48.786;10.120;2023-02-15T00:31:32;2.10;99.90
11043;DHT22;5574;48.786;10.120;2023-02-15T00:34:02;2.10;99.90
11043;DHT22;5574;48.786;10.120;2023-02-15T00:36:29;2.10;99.90
11043;DHT22;5574;48.786;10.120;2023-02-15T00:38:56;2.00;99.90
11043;DHT22;5574;48.786;10.120;2023-02-15T00:41:23;1.90;99.90
11043;DHT22;5574;48.786;10.120;2023-02-15T00:43:49;2.00;99.90
11043;DHT22;5574;48.786;10.120;2023-02-15T00:46:16;1.90;99.90
11043;DHT22;5574;48.786;10.120;2023-02-15T00:48:43;1.90;99.90
11043;DHT22;5574;48.786;10.120;2023-02-15T00:51:11;1.80;99.90
11043;DHT22;5574;48.786;10.120;2023-02-15T00:53:38;1.80;99.90
11043;DHT22;5574;48.786;10.120;2023-02-15T00:56:04;1.80;99.90
11043;DHT22;5574;48.786;10.120;2023-02-15T00:58:31;1.80;99.90
11043;DHT22;5574;48.786;10.120;2023-02-15T01:01:03;1.90;99.90
11043;DHT22;5574;48.786;10.120;2023-02-15T01:03:30;1.90;99.90
11043;DHT22;5574;48.786;10.120;2023-02-15T01:05:57;1.90;99.90
11043;DHT22;5574;48.786;10.120;2023-02-15T01:08:25;1.90;99.90
11043;DHT22;5574;48.786;10.120;2023-02-15T01:10:52;1.90;99.90
11043;DHT22;5574;48.786;10.120;2023-02-15T01:13:19;1.90;99.90
11043;DHT22;5574;48.786;10.120;2023-02-15T01:15:46;1.90;99.90
11043;DHT22;5574;48.786;10.120;2023-02-15T01:18:18;1.90;99.90
11043;DHT22;5574;48.786;10.120;2023-02-15T01:20:45;2.00;99.90
11043;DHT22;5574;48.786;10.120;2023-02-15T01:23:13;2.00;99.90
11043;DHT22;5574;48.786;10.120;2023-02-15T01:25:41;1.90;99.90
11043;DHT22;5574;48.786;10.120;2023-02-15T01:28:08;1.90;99.90
11043;DHT22;5574;48.786;10.120;2023-02-15T01:30:34;1.90;99.90
11043;DHT22;5574;48.786;10.120;2023-02-15T01:33:01;1.90;99.90
11043;DHT22;5574;48.786;10.120;2023-02-15T01:35:28;1.90;99.90
11043;DHT22;5574;48.786;10.120;2023-02-15T01:37:55;1.90;99.90
11043;DHT22;5574;48.786;10.120;2023-02-15T01:40:23;2.00;99.90
11043;DHT22;5574;48.786;10.120;2023-02-15T01:42:52;2.00;99.90
11043;DHT22;5574;48.786;10.120;2023-02-15T01:45:22;2.00;99.90
11043;DHT22;5574;48.786;10.120;2023-02-15T01:47:56;2.00;99.90
11043;DHT22;5574;48.786;10.120;2023-02-15T01:50:27;2.00;99.90
11043;DHT22;5574;48.786;10.120;2023-02-15T01:52:58;2.00;99.90
11043;DHT22;5574;48.786;10.120;2023-02-15T01:55:32;2.00;99.90
11043;DHT22;5574;48.786;10.120;2023-02-15T01:58:00;2.00;99.90
11043;DHT22;5574;48.786;10.120;2023-02-15T02:00:28;1.90;99.90
11043;DHT22;5574;48.786;10.120;2023-02-15T02:02:55;1.90;99.90
11043;DHT22;5574;48.786;10.120;2023-02-15T02:05:23;1.90;99.90
11043;DHT22;5574;48.786;10.120;2023-02-15T02:07:52;1.90;99.90
11043;DHT22;5574;48.786;10.120;2023-02-15T02:10:21;1.90;99.90
11043;DHT22;5574;48.786;10.120;2023-02-15T02:12:51;1.90;99.90
11043;DHT22;5574;48.786;10.120;2023-02-15T02:15:23;1.90;99.90
11043;DHT22;5574;48.786;10.120;2023-02-15T02:18:01;1.90;99.90
11043;DHT22;5574;48.786;10.120;2023-02-15T02:20:43;2.00;99.90
11043;DHT22;5574;48.786;10.120;2023-02-15T02:23:27;1.90;99.90
11043;DHT22;5574;48.786;10.120;2023-02-15T02:26:44;1.90;99.90
11043;DHT22;5574;48.786;10.120;2023-02-15T02:29:39;1.80;99.90
11043;DHT22;5574;48.786;10.120;2023-02-15T02:35:18;1.80;99.90
11043;DHT22;5574;48.786;10.120;2023-02-15T02:38:00;1.80;99.90
11043;DHT22;5574;48.786;10.120;2023-02-15T02:40:36;1.80;99.90
11043;DHT22;5574;48.786;10.120;2023-02-15T02:43:11;1.80;99.90
11043;DHT22;5574;48.786;10.120;2023-02-15T02:45:45;1.80;99.90
11043;DHT22;5574;48.786;10.120;2023-02-15T02:48:18;1.80;99.90
11043;DHT22;5574;48.786;10.120;2023-02-15T02:50:47;1.80;99.90
11043;DHT22;5574;48.786;10.120;2023-02-15T02:53:14;1.80;99.90
11043;DHT22;5574;48.786;10.120;2023-02-15T02:55:43;1.80;99.90
11043;DHT22;5574;48.786;10.120;2023-02-15T02:58:14;1.80;99.90
11043;DHT22;5574;48.786;10.120;2023-02-15T03:00:45;1.70;99.90
11043;DHT22;5574;48.786;10.120;2023-02-15T03:03:16;1.80;99.90
11043;DHT22;5574;48.786;10.120;2023-02-15T03:05:48;1.80;99.90
11043;DHT22;5574;48.786;10.120;2023-02-15T03:08:18;1.80;99.90
11043;DHT22;5574;48.786;10.120;2023-02-15T03:10:48;1.80;99.90
11043;DHT22;5574;48.786;10.120;2023-02-15T03:13:15;1.70;99.90
11043;DHT22;5574;48.786;10.120;2023-02-15T03:15:43;1.70;99.90
11043;DHT22;5574;48.786;10.120;2023-02-15T03:18:32;1.70;99.90
11043;DHT22;5574;48.786;10.120;2023-02-15T03:21:03;1.70;99.90
11043;DHT22;5574;48.786;10.120;2023-02-15T03:23:32;1.80;99.90
11043;DHT22;5574;48.786;10.120;2023-02-15T03:26:01;1.70;99.90
11043;DHT22;5574;48.786;10.120;2023-02-15T03:28:30;1.70;99.90
11043;DHT22;5574;48.786;10.120;2023-02-15T03:31:02;1.70;99.90
11043;DHT22;5574;48.786;10.120;2023-02-15T03:33:30;1.70;99.90
11043;DHT22;5574;48.786;10.120;2023-02-15T03:36:04;1.80;99.90
11043;DHT22;5574;48.786;10.120;2023-02-15T03:38:35;1.70;99.90
11043;DHT22;5574;48.786;10.120;2023-02-15T03:41:03;1.70;99.90
11043;DHT22;5574;48.786;10.120;2023-02-15T03:43:43;1.70;99.90
11043;DHT22;5574;48.786;10.120;2023-02-15T03:46:17;1.70;99.90
11043;DHT22;5574;48.786;10.120;2023-02-15T03:48:49;1.70;99.90
11043;DHT22;5574;48.786;10.120;2023-02-15T03:51:21;1.70;99.90
11043;DHT22;5574;48.786;10.120;2023-02-15T03:54:01;1.60;99.90
11043;DHT22;5574;48.786;10.120;2023-02-15T03:56:29;1.70;99.90
11043;DHT22;5574;48.786;10.120;2023-02-15T03:58:55;1.60;99.90
11043;DHT22;5574;48.786;10.120;2023-02-15T04:01:43;1.60;99.90
11043;DHT22;5574;48.786;10.120;2023-02-15T04:04:33;1.60;99.90
11043;DHT22;5574;48.786;10.120;2023-02-15T04:07:03;1.40;99.90
11043;DHT22;5574;48.786;10.120;2023-02-15T04:09:30;1.40;99.90
11043;DHT22;5574;48.786;10.120;2023-02-15T04:12:15;1.50;99.90
11043;DHT22;5574;48.786;10.120;2023-02-15T04:14:41;1.40;99.90
11043;DHT22;5574;48.786;10.120;2023-02-15T04:17:26;1.40;99.90
11043;DHT22;5574;48.786;10.120;2023-02-15T04:19:53;1.50;99.90
11043;DHT22;5574;48.786;10.120;2023-02-15T04:22:38;1.50;99.90
11043;DHT22;5574;48.786;10.120;2023-02-15T04:25:22;1.40;99.90
11043;DHT22;5574;48.786;10.120;2023-02-15T04:27:50;1.40;99.90
11043;DHT22;5574;48.786;10.120;2023-02-15T04:30:19;1.40;99.90
11043;DHT22;5574;48.786;10.120;2023-02-15T04:32:46;1.30;99.90
11043;DHT22;5574;48.786;10.120;2023-02-15T04:35:14;1.30;99.90
11043;DHT22;5574;48.786;10.120;2023-02-15T04:37:43;1.40;99.90
11043;DHT22;5574;48.786;10.120;2023-02-15T04:40:11;1.40;99.90
11043;DHT22;5574;48.786;10.120;2023-02-15T04:42:39;1.40;99.90
11043;DHT22;5574;48.786;10.120;2023-02-15T04:45:06;1.40;99.90
11043;DHT22;5574;48.786;10.120;2023-02-15T04:47:33;1.40;99.90
11043;DHT22;5574;48.786;10.120;2023-02-15T04:49:59;1.40;99.90
11043;DHT22;5574;48.786;10.120;2023-02-15T04:52:26;1.40;99.90
11043;DHT22;5574;48.786;10.120;2023-02-15T04:54:54;1.40;99.90
11043;DHT22;5574;48.786;10.120;2023-02-15T04:57:21;1.40;99.90
11043;DHT22;5574;48.786;10.120;2023-02-15T04:59:47;1.40;99.90
11043;DHT22;5574;48.786;10.120;2023-02-15T05:02:14;1.40;99.90
11043;DHT22;5574;48.786;10.120;2023-02-15T05:04:41;1.40;99.90
11043;DHT22;5574;48.786;10.120;2023-02-15T05:07:08;1.40;99.90
11043;DHT22;5574;48.786;10.120;2023-02-15T05:09:34;1.40;99.90
11043;DHT22;5574;48.786;10.120;2023-02-15T05:12:02;1.40;99.90
11043;DHT22;5574;48.786;10.120;2023-02-15T05:14:29;1.40;99.90
11043;DHT22;5574;48.786;10.120;2023-02-15T05:16:56;1.40;99.90
11043;DHT22;5574;48.786;10.120;2023-02-15T05:19:26;1.40;99.90
11043;DHT22;5574;48.786;10.120;2023-02-15T05:21:52;1.30;99.90
11043;DHT22;5574;48.786;10.120;2023-02-15T05:24:19;1.40;99.90
11043;DHT22;5574;48.786;10.120;2023-02-15T05:27:04;1.30;99.90
11043;DHT22;5574;48.786;10.120;2023-02-15T05:29:48;1.40;99.90
11043;DHT22;5574;48.786;10.120;2023-02-15T05:32:15;1.40;99.90
11043;DHT22;5574;48.786;10.120;2023-02-15T05:34:42;1.30;99.90
11043;DHT22;5574;48.786;10.120;2023-02-15T05:37:09;1.30;99.90
11043;DHT22;5574;48.786;10.120;2023-02-15T05:39:35;1.30;99.90
11043;DHT22;5574;48.786;10.120;2023-02-15T05:42:02;1.30;99.90
11043;DHT22;5574;48.786;10.120;2023-02-15T05:44:30;1.20;99.90
11043;DHT22;5574;48.786;10.120;2023-02-15T05:46:57;1.20;99.90
11043;DHT22;5574;48.786;10.120;2023-02-15T05:49:23;1.10;99.90
11043;DHT22;5574;48.786;10.120;2023-02-15T05:51:50;1.10;99.90
11043;DHT22;5574;48.786;10.120;2023-02-15T05:54:17;1.20;99.90
11043;DHT22;5574;48.786;10.120;2023-02-15T05:56:44;1.10;99.90
11043;DHT22;5574;48.786;10.120;2023-02-15T05:59:10;1.20;99.90
11043;DHT22;5574;48.786;10.120;2023-02-15T06:01:39;1.20;99.90
11043;DHT22;5574;48.786;10.120;2023-02-15T06:04:06;1.20;99.90
11043;DHT22;5574;48.786;10.120;2023-02-15T06:06:32;1.20;99.90
11043;DHT22;5574;48.786;10.120;2023-02-15T06:08:59;1.20;99.90
11043;DHT22;5574;48.786;10.120;2023-02-15T06:11:26;1.10;99.90
11043;DHT22;5574;48.786;10.120;2023-02-15T06:13:53;1.20;99.90
11043;DHT22;5574;48.786;10.120;2023-02-15T06:16:19;1.20;99.90
11043;DHT22;5574;48.786;10.120;2023-02-15T06:18:48;1.20;99.90
11043;DHT22;5574;48.786;10.120;2023-02-15T06:21:14;1.20;99.90
11043;DHT22;5574;48.786;10.120;2023-02-15T06:23:41;1.10;99.90
11043;DHT22;5574;48.786;10.120;2023-02-15T06:26:08;1.10;99.90
11043;DHT22;5574;48.786;10.120;2023-02-15T06:28:35;1.10;99.90
11043;DHT22;5574;48.786;10.120;2023-02-15T06:31:02;1.10;99.90
11043;DHT22;5574;48.786;10.120;2023-02-15T06:33:29;1.10;99.90
11043;DHT22;5574;48.786;10.120;2023-02-15T06:36:00;1.10;99.90
11043;DHT22;5574;48.786;10.120;2023-02-15T06:38:27;1.20;99.90
11043;DHT22;5574;48.786;10.120;2023-02-15T06:40:54;1.20;99.90
11043;DHT22;5574;48.786;10.120;2023-02-15T06:43:20;1.20;99.90
11043;DHT22;5574;48.786;10.120;2023-02-15T06:45:47;1.20;99.90
11043;DHT22;5574;48.786;10.120;2023-02-15T06:48:14;1.20;99.90
11043;DHT22;5574;48.786;10.120;2023-02-15T06:50:40;1.20;99.90
11043;DHT22;5574;48.786;10.120;2023-02-15T06:53:09;1.20;99.90
11043;DHT22;5574;48.786;10.120;2023-02-15T06:55:35;1.20;99.90
11043;DHT22;5574;48.786;10.120;2023-02-15T06:58:02;1.20;99.90
11043;DHT22;5574;48.786;10.120;2023-02-15T07:00:29;1.20;99.90
11043;DHT22;5574;48.786;10.120;2023-02-15T07:02:56;1.20;99.90
11043;DHT22;5574;48.786;10.120;2023-02-15T07:05:23;1.20;99.90
11043;DHT22;5574;48.786;10.120;2023-02-15T07:07:50;1.10;99.90
11043;DHT22;5574;48.786;10.120;2023-02-15T07:10:18;1.10;99.90
11043;DHT22;5574;48.786;10.120;2023-02-15T07:12:44;1.10;99.90
11043;DHT22;5574;48.786;10.120;2023-02-15T07:15:13;1.10;99.90
11043;DHT22;5574;48.786;10.120;2023-02-15T07:17:41;1.20;99.90
11043;DHT22;5574;48.786;10.120;2023-02-15T07:20:10;1.20;99.90
11043;DHT22;5574;48.786;10.120;2023-02-15T07:22:37;1.20;99.90
11043;DHT22;5574;48.786;10.120;2023-02-15T07:25:05;1.20;99.90
11043;DHT22;5574;48.786;10.120;2023-02-15T07:27:34;1.20;99.90
11043;DHT22;5574;48.786;10.120;2023-02-15T07:30:01;1.30;99.90
11043;DHT22;5574;48.786;10.120;2023-02-15T07:32:29;1.20;99.90
11043;DHT22;5574;48.786;10.120;2023-02-15T07:34:56;1.30;99.90
11043;DHT22;5574;48.786;10.120;2023-02-15T07:37:23;1.30;99.90
11043;DHT22;5574;48.786;10.120;2023-02-15T07:39:49;1.30;99.90
11043;DHT22;5574;48.786;10.120;2023-02-15T07:42:16;1.40;99.90
11043;DHT22;5574;48.786;10.120;2023-02-15T07:44:46;1.50;99.90
11043;DHT22;5574;48.786;10.120;2023-02-15T07:47:13;1.40;99.90
11043;DHT22;5574;48.786;10.120;2023-02-15T07:49:40;1.50;99.90
11043;DHT22;5574;48.786;10.120;2023-02-15T07:52:06;1.50;99.90
11043;DHT22;5574;48.786;10.120;2023-02-15T07:54:33;1.50;99.90
11043;DHT22;5574;48.786;10.120;2023-02-15T07:57:00;1.60;99.90
11043;DHT22;5574;48.786;10.120;2023-02-15T07:59:27;1.70;99.90
11043;DHT22;5574;48.786;10.120;2023-02-15T08:01:55;1.70;99.90
11043;DHT22;5574;48.786;10.120;2023-02-15T08:04:23;1.80;99.90
11043;DHT22;5574;48.786;10.120;2023-02-15T08:06:52;1.90;99.90
11043;DHT22;5574;48.786;10.120;2023-02-15T08:09:20;2.20;99.90
11043;DHT22;5574;48.786;10.120;2023-02-15T08:11:47;2.40;99.90
11043;DHT22;5574;48.786;10.120;2023-02-15T08:14:16;2.50;99.90
11043;DHT22;5574;48.786;10.120;2023-02-15T08:16:44;2.60;99.90
11043;DHT22;5574;48.786;10.120;2023-02-15T08:19:14;2.80;99.90
11043;DHT22;5574;48.786;10.120;2023-02-15T08:21:43;2.80;99.90
11043;DHT22;5574;48.786;10.120;2023-02-15T08:24:14;2.70;99.90
11043;DHT22;5574;48.786;10.120;2023-02-15T08:26:42;2.70;99.90
11043;DHT22;5574;48.786;10.120;2023-02-15T08:29:10;2.80;99.90
11043;DHT22;5574;48.786;10.120;2023-02-15T08:31:37;2.80;99.90
11043;DHT22;5574;48.786;10.120;2023-02-15T08:34:07;2.90;99.90
11043;DHT22;5574;48.786;10.120;2023-02-15T08:36:35;3.00;99.90
11043;DHT22;5574;48.786;10.120;2023-02-15T08:39:03;3.10;99.90
11043;DHT22;5574;48.786;10.120;2023-02-15T08:41:32;3.20;99.90
11043;DHT22;5574;48.786;10.120;2023-02-15T08:44:01;3.30;99.90
11043;DHT22;5574;48.786;10.120;2023-02-15T08:46:29;3.40;99.90
11043;DHT22;5574;48.786;10.120;2023-02-15T08:48:57;3.50;99.90
11043;DHT22;5574;48.786;10.120;2023-02-15T08:51:25;3.60;99.90
11043;DHT22;5574;48.786;10.120;2023-02-15T08:53:54;3.80;99.90
11043;DHT22;5574;48.786;10.120;2023-02-15T08:56:22;3.80;99.90
11043;DHT22;5574;48.786;10.120;2023-02-15T08:58:49;3.90;99.90
11043;DHT22;5574;48.786;10.120;2023-02-15T09:01:18;4.00;99.90
11043;DHT22;5574;48.786;10.120;2023-02-15T09:03:47;4.10;99.90
11043;DHT22;5574;48.786;10.120;2023-02-15T09:06:15;4.30;99.90
11043;DHT22;5574;48.786;10.120;2023-02-15T09:08:42;4.40;99.90
11043;DHT22;5574;48.786;10.120;2023-02-15T09:11:11;4.50;99.90
11043;DHT22;5574;48.786;10.120;2023-02-15T09:13:39;4.50;99.90
11043;DHT22;5574;48.786;10.120;2023-02-15T09:16:08;4.60;99.90
11043;DHT22;5574;48.786;10.120;2023-02-15T09:18:37;4.60;99.90
11043;DHT22;5574;48.786;10.120;2023-02-15T09:21:09;4.80;99.90
11043;DHT22;5574;48.786;10.120;2023-02-15T09:23:36;4.90;99.90
11043;DHT22;5574;48.786;10.120;2023-02-15T09:26:05;5.10;99.90
11043;DHT22;5574;48.786;10.120;2023-02-15T09:28:33;5.20;99.90
11043;DHT22;5574;48.786;10.120;2023-02-15T09:31:11;5.40;99.90
11043;DHT22;5574;48.786;10.120;2023-02-15T09:33:38;5.40;99.90
11043;DHT22;5574;48.786;10.120;2023-02-15T09:36:14;5.50;99.90
11043;DHT22;5574;48.786;10.120;2023-02-15T09:38:41;5.70;99.90
11043;DHT22;5574;48.786;10.120;2023-02-15T09:41:25;5.80;99.90
11043;DHT22;5574;48.786;10.120;2023-02-15T09:44:02;6.00;99.90
11043;DHT22;5574;48.786;10.120;2023-02-15T09:46:48;6.20;99.90
11043;DHT22;5574;48.786;10.120;2023-02-15T09:49:22;6.30;99.90
11043;DHT22;5574;48.786;10.120;2023-02-15T09:52:04;6.40;99.90
11043;DHT22;5574;48.786;10.120;2023-02-15T09:54:46;6.60;99.90
11043;DHT22;5574;48.786;10.120;2023-02-15T09:57:20;6.80;99.90
11043;DHT22;5574;48.786;10.120;2023-02-15T09:59:58;6.80;99.90
11043;DHT22;5574;48.786;10.120;2023-02-15T10:02:38;7.00;99.90
11043;DHT22;5574;48.786;10.120;2023-02-15T10:05:21;7.10;99.90
11043;DHT22;5574;48.786;10.120;2023-02-15T10:08:14;7.30;99.90
11043;DHT22;5574;48.786;10.120;2023-02-15T10:10:54;7.50;99.90
11043;DHT22;5574;48.786;10.120;2023-02-15T10:13:29;7.90;99.90
11043;DHT22;5574;48.786;10.120;2023-02-15T10:16:08;8.10;99.90
11043;DHT22;5574;48.786;10.120;2023-02-15T10:18:51;8.50;99.90
11043;DHT22;5574;48.786;10.120;2023-02-15T10:21:26;8.80;99.90
11043;DHT22;5574;48.786;10.120;2023-02-15T10:24:12;8.90;99.90
11043;DHT22;5574;48.786;10.120;2023-02-15T10:26:43;8.80;99.90
11043;DHT22;5574;48.786;10.120;2023-02-15T10:29:16;8.90;99.90
11043;DHT22;5574;48.786;10.120;2023-02-15T10:31:49;9.00;99.90
11043;DHT22;5574;48.786;10.120;2023-02-15T10:34:17;9.40;99.90
11043;DHT22;5574;48.786;10.120;2023-02-15T10:37:13;9.20;99.90
11043;DHT22;5574;48.786;10.120;2023-02-15T10:39:50;9.30;99.90
11043;DHT22;5574;48.786;10.120;2023-02-15T10:42:26;9.50;99.90
11043;DHT22;5574;48.786;10.120;2023-02-15T10:45:08;9.40;99.90
11043;DHT22;5574;48.786;10.120;2023-02-15T10:48:06;9.60;99.90
11043;DHT22;5574;48.786;10.120;2023-02-15T10:50:46;9.80;99.90
11043;DHT22;5574;48.786;10.120;2023-02-15T10:53:22;9.50;99.90
11043;DHT22;5574;48.786;10.120;2023-02-15T10:55:55;9.30;99.90
11043;DHT22;5574;48.786;10.120;2023-02-15T10:58:30;9.40;99.90
11043;DHT22;5574;48.786;10.120;2023-02-15T11:01:05;9.40;99.90
11043;DHT22;5574;48.786;10.120;2023-02-15T11:03:47;9.20;99.90
11043;DHT22;5574;48.786;10.120;2023-02-15T11:06:20;9.40;99.90
11043;DHT22;5574;48.786;10.120;2023-02-15T11:08:50;9.40;99.90
11043;DHT22;5574;48.786;10.120;2023-02-15T11:11:23;9.40;99.90
11043;DHT22;5574;48.786;10.120;2023-02-15T11:13:53;9.20;99.90
11043;DHT22;5574;48.786;10.120;2023-02-15T11:16:24;9.20;99.90
11043;DHT22;5574;48.786;10.120;2023-02-15T11:18:55;9.10;99.90
11043;DHT22;5574;48.786;10.120;2023-02-15T11:21:26;9.20;99.90
11043;DHT22;5574;48.786;10.120;2023-02-15T11:23:54;9.10;99.90
11043;DHT22;5574;48.786;10.120;2023-02-15T11:26:26;9.00;99.90
11043;DHT22;5574;48.786;10.120;2023-02-15T11:28:58;9.10;99.90
11043;DHT22;5574;48.786;10.120;2023-02-15T11:31:26;8.90;99.90
11043;DHT22;5574;48.786;10.120;2023-02-15T11:33:59;8.70;99.90
11043;DHT22;5574;48.786;10.120;2023-02-15T11:36:32;9.30;99.90
11043;DHT22;5574;48.786;10.120;2023-02-15T11:39:03;9.40;99.90
11043;DHT22;5574;48.786;10.120;2023-02-15T11:41:35;9.70;99.90
11043;DHT22;5574;48.786;10.120;2023-02-15T11:44:10;10.10;99.90
11043;DHT22;5574;48.786;10.120;2023-02-15T11:46:39;10.20;99.90
11043;DHT22;5574;48.786;10.120;2023-02-15T11:49:23;10.10;99.90
11043;DHT22;5574;48.786;10.120;2023-02-15T11:51:50;10.40;99.90
11043;DHT22;5574;48.786;10.120;2023-02-15T11:54:17;10.50;99.90
11043;DHT22;5574;48.786;10.120;2023-02-15T11:56:44;10.20;99.90
11043;DHT22;5574;48.786;10.120;2023-02-15T11:59:15;9.90;99.90
11043;DHT22;5574;48.786;10.120;2023-02-15T12:01:45;9.90;99.90
11043;DHT22;5574;48.786;10.120;2023-02-15T12:04:19;9.80;99.90
11043;DHT22;5574;48.786;10.120;2023-02-15T12:06:53;9.60;99.90
11043;DHT22;5574;48.786;10.120;2023-02-15T12:09:26;9.50;99.90
11043;DHT22;5574;48.786;10.120;2023-02-15T12:12:20;9.40;99.90
11043;DHT22;5574;48.786;10.120;2023-02-15T12:14:48;9.50;99.90
11043;DHT22;5574;48.786;10.120;2023-02-15T12:17:16;9.60;99.90
11043;DHT22;5574;48.786;10.120;2023-02-15T12:19:45;9.90;99.90
11043;DHT22;5574;48.786;10.120;2023-02-15T12:22:21;9.80;99.90
11043;DHT22;5574;48.786;10.120;2023-02-15T12:24:49;10.10;99.90
11043;DHT22;5574;48.786;10.120;2023-02-15T12:27:19;10.20;99.90
11043;DHT22;5574;48.786;10.120;2023-02-15T12:29:50;10.30;99.90
11043;DHT22;5574;48.786;10.120;2023-02-15T12:32:19;10.10;99.90
11043;DHT22;5574;48.786;10.120;2023-02-15T12:34:50;10.00;99.90
11043;DHT22;5574;48.786;10.120;2023-02-15T12:37:19;10.10;99.90
11043;DHT22;5574;48.786;10.120;2023-02-15T12:39:53;10.10;99.90
11043;DHT22;5574;48.786;10.120;2023-02-15T12:42:20;10.20;99.90
11043;DHT22;5574;48.786;10.120;2023-02-15T12:44:54;10.20;99.90
11043;DHT22;5574;48.786;10.120;2023-02-15T12:47:21;10.00;99.90
11043;DHT22;5574;48.786;10.120;2023-02-15T12:50:05;10.00;99.90
11043;DHT22;5574;48.786;10.120;2023-02-15T12:52:34;10.00;99.90
11043;DHT22;5574;48.786;10.120;2023-02-15T12:55:11;10.10;99.90
11043;DHT22;5574;48.786;10.120;2023-02-15T12:57:43;10.20;99.90
11043;DHT22;5574;48.786;10.120;2023-02-15T13:00:26;10.20;99.90
11043;DHT22;5574;48.786;10.120;2023-02-15T13:02:55;10.10;99.90
11043;DHT22;5574;48.786;10.120;2023-02-15T13:05:28;10.10;99.90
11043;DHT22;5574;48.786;10.120;2023-02-15T13:07:57;9.90;99.90
11043;DHT22;5574;48.786;10.120;2023-02-15T13:10:27;10.00;99.90
11043;DHT22;5574;48.786;10.120;2023-02-15T13:12:55;10.00;99.90
11043;DHT22;5574;48.786;10.120;2023-02-15T13:15:34;10.00;99.90
11043;DHT22;5574;48.786;10.120;2023-02-15T13:18:03;10.10;99.90
11043;DHT22;5574;48.786;10.120;2023-02-15T13:20:32;10.10;99.90
11043;DHT22;5574;48.786;10.120;2023-02-15T13:23:03;10.20;99.90
11043;DHT22;5574;48.786;10.120;2023-02-15T13:25:34;10.20;99.90
11043;DHT22;5574;48.786;10.120;2023-02-15T13:28:06;10.20;99.90
11043;DHT22;5574;48.786;10.120;2023-02-15T13:30:35;10.20;99.90
11043;DHT22;5574;48.786;10.120;2023-02-15T13:33:06;10.20;99.90
11043;DHT22;5574;48.786;10.120;2023-02-15T13:35:41;10.30;99.90
11043;DHT22;5574;48.786;10.120;2023-02-15T13:38:17;10.20;99.90
11043;DHT22;5574;48.786;10.120;2023-02-15T13:40:52;10.20;99.90
11043;DHT22;5574;48.786;10.120;2023-02-15T13:43:34;10.30;99.90
11043;DHT22;5574;48.786;10.120;2023-02-15T13:46:09;10.30;99.90
11043;DHT22;5574;48.786;10.120;2023-02-15T13:48:46;10.30;99.90
11043;DHT22;5574;48.786;10.120;2023-02-15T13:51:21;10.40;99.90
11043;DHT22;5574;48.786;10.120;2023-02-15T13:54:10;10.40;99.90
11043;DHT22;5574;48.786;10.120;2023-02-15T13:56:49;10.40;99.90
11043;DHT22;5574;48.786;10.120;2023-02-15T13:59:38;10.40;99.90
11043;DHT22;5574;48.786;10.120;2023-02-15T14:02:31;10.50;99.90
11043;DHT22;5574;48.786;10.120;2023-02-15T14:05:25;10.50;99.90
11043;DHT22;5574;48.786;10.120;2023-02-15T14:08:04;10.50;99.90
11043;DHT22;5574;48.786;10.120;2023-02-15T14:10:44;10.60;99.90
11043;DHT22;5574;48.786;10.120;2023-02-15T14:16:19;10.60;99.90
11043;DHT22;5574;48.786;10.120;2023-02-15T14:18:50;10.50;99.90
11043;DHT22;5574;48.786;10.120;2023-02-15T14:21:23;10.60;99.90
11043;DHT22;5574;48.786;10.120;2023-02-15T14:24:05;10.70;99.90
11043;DHT22;5574;48.786;10.120;2023-02-15T14:26:40;10.80;99.90
11043;DHT22;5574;48.786;10.120;2023-02-15T14:29:16;10.90;99.90
11043;DHT22;5574;48.786;10.120;2023-02-15T14:31:47;11.00;99.90
11043;DHT22;5574;48.786;10.120;2023-02-15T14:34:21;11.00;99.90
11043;DHT22;5574;48.786;10.120;2023-02-15T14:36:50;11.00;99.90
11043;DHT22;5574;48.786;10.120;2023-02-15T14:39:28;11.10;99.90
11043;DHT22;5574;48.786;10.120;2023-02-15T14:42:18;11.10;99.90
11043;DHT22;5574;48.786;10.120;2023-02-15T14:44:50;11.00;99.90
11043;DHT22;5574;48.786;10.120;2023-02-15T14:47:22;10.90;99.90
11043;DHT22;5574;48.786;10.120;2023-02-15T14:49:52;11.00;99.90
11043;DHT22;5574;48.786;10.120;2023-02-15T14:52:18;10.90;99.90
11043;DHT22;5574;48.786;10.120;2023-02-15T14:54:59;10.90;99.90
11043;DHT22;5574;48.786;10.120;2023-02-15T14:57:35;10.90;99.90
11043;DHT22;5574;48.786;10.120;2023-02-15T15:00:30;10.80;99.90
11043;DHT22;5574;48.786;10.120;2023-02-15T15:02:59;10.70;99.90
11043;DHT22;5574;48.786;10.120;2023-02-15T15:05:32;10.70;99.90
11043;DHT22;5574;48.786;10.120;2023-02-15T15:08:01;10.60;99.90
11043;DHT22;5574;48.786;10.120;2023-02-15T15:10:44;10.60;99.90
11043;DHT22;5574;48.786;10.120;2023-02-15T15:13:36;10.60;99.90
11043;DHT22;5574;48.786;10.120;2023-02-15T15:22:23;11.30;99.90
11043;DHT22;5574;48.786;10.120;2023-02-15T15:24:53;11.30;99.90
11043;DHT22;5574;48.786;10.120;2023-02-15T15:27:45;11.30;99.90
11043;DHT22;5574;48.786;10.120;2023-02-15T15:30:47;11.00;99.90
11043;DHT22;5574;48.786;10.120;2023-02-15T15:40:04;10.30;99.90
11043;DHT22;5574;48.786;10.120;2023-02-15T15:42:50;10.10;99.90
11043;DHT22;5574;48.786;10.120;2023-02-15T15:45:34;10.00;99.90
11043;DHT22;5574;48.786;10.120;2023-02-15T15:48:15;9.90;99.90
11043;DHT22;5574;48.786;10.120;2023-02-15T15:50:44;9.90;99.90
11043;DHT22;5574;48.786;10.120;2023-02-15T15:53:18;9.80;99.90
11043;DHT22;5574;48.786;10.120;2023-02-15T15:55:47;9.80;99.90
11043;DHT22;5574;48.786;10.120;2023-02-15T15:58:18;9.70;99.90
11043;DHT22;5574;48.786;10.120;2023-02-15T16:00:47;9.70;99.90
11043;DHT22;5574;48.786;10.120;2023-02-15T16:03:20;9.70;99.90
11043;DHT22;5574;48.786;10.120;2023-02-15T16:05:47;9.50;99.90
11043;DHT22;5574;48.786;10.120;2023-02-15T16:08:27;9.40;99.90
11043;DHT22;5574;48.786;10.120;2023-02-15T16:10:53;9.30;99.90
11043;DHT22;5574;48.786;10.120;2023-02-15T16:13:21;9.20;99.90
11043;DHT22;5574;48.786;10.120;2023-02-15T16:15:50;9.00;99.90
11043;DHT22;5574;48.786;10.120;2023-02-15T16:18:21;8.90;99.90
11043;DHT22;5574;48.786;10.120;2023-02-15T16:20:51;8.70;99.90
11043;DHT22;5574;48.786;10.120;2023-02-15T16:23:39;8.50;99.90
11043;DHT22;5574;48.786;10.120;2023-02-15T16:26:13;8.30;99.90
11043;DHT22;5574;48.786;10.120;2023-02-15T16:28:49;8.20;99.90
11043;DHT22;5574;48.786;10.120;2023-02-15T16:31:17;8.10;99.90